sensor_id;sensor_type;location;lat;lon;timestamp;P1;durP1;ratioP1;P2;durP2;ratioP2
35128;SDS011;21301;43.626;10.580;2023-07-24T00:02:15;15.15;;;8.52;;
35128;SDS011;21301;43.626;10.580;2023-07-24T00:04:41;17.23;;;8.40;;
35128;SDS011;21301;43.626;10.580;2023-07-24T00:07:07;25.75;;;8.80;;
35128;SDS011;21301;43.626;10.580;2023-07-24T00:09:33;15.50;;;8.05;;
35128;SDS011;21301;43.626;10.580;2023-07-24T00:11:58;18.17;;;9.63;;
35128;SDS011;21301;43.626;10.580;2023-07-24T00:14:24;14.00;;;8.32;;
35128;SDS011;21301;43.626;10.580;2023-07-24T00:16:50;24.30;;;9.10;;
35128;SDS011;21301;43.626;10.580;2023-07-24T00:19:16;15.90;;;8.38;;
35128;SDS011;21301;43.626;10.580;2023-07-24T00:21:41;18.98;;;8.52;;
35128;SDS011;21301;43.626;10.580;2023-07-24T00:24:07;16.90;;;9.02;;
35128;SDS011;21301;43.626;10.580;2023-07-24T00:26:33;17.42;;;8.48;;
35128;SDS011;21301;43.626;10.580;2023-07-24T00:28:59;13.40;;;8.32;;
35128;SDS011;21301;43.626;10.580;2023-07-24T00:31:25;17.02;;;8.13;;
35128;SDS011;21301;43.626;10.580;2023-07-24T00:33:51;18.10;;;8.88;;
35128;SDS011;21301;43.626;10.580;2023-07-24T00:36:17;15.32;;;9.32;;
35128;SDS011;21301;43.626;10.580;2023-07-24T00:38:43;16.17;;;8.77;;
35128;SDS011;21301;43.626;10.580;2023-07-24T00:41:08;22.23;;;9.20;;
35128;SDS011;21301;43.626;10.580;2023-07-24T00:43:34;11.90;;;7.47;;
35128;SDS011;21301;43.626;10.580;2023-07-24T00:46:00;15.80;;;9.15;;
35128;SDS011;21301;43.626;10.580;2023-07-24T00:48:28;19.08;;;8.98;;
35128;SDS011;21301;43.626;10.580;2023-07-24T00:50:53;13.93;;;8.45;;
35128;SDS011;21301;43.626;10.580;2023-07-24T00:53:20;12.07;;;7.10;;
35128;SDS011;21301;43.626;10.580;2023-07-24T00:55:46;16.33;;;8.75;;
35128;SDS011;21301;43.626;10.580;2023-07-24T00:58:12;16.90;;;8.95;;
35128;SDS011;21301;43.626;10.580;2023-07-24T01:00:40;15.25;;;8.07;;
35128;SDS011;21301;43.626;10.580;2023-07-24T01:03:07;22.38;;;8.60;;
35128;SDS011;21301;43.626;10.580;2023-07-24T01:05:33;14.55;;;8.05;;
35128;SDS011;21301;43.626;10.580;2023-07-24T01:07:59;16.23;;;9.05;;
35128;SDS011;21301;43.626;10.580;2023-07-24T01:10:25;15.98;;;9.10;;
35128;SDS011;21301;43.626;10.580;2023-07-24T01:15:23;11.45;;;7.70;;
35128;SDS011;21301;43.626;10.580;2023-07-24T01:17:57;17.17;;;8.82;;
35128;SDS011;21301;43.626;10.580;2023-07-24T01:20:31;17.02;;;8.25;;
35128;SDS011;21301;43.626;10.580;2023-07-24T01:25:55;17.63;;;9.52;;
35128;SDS011;21301;43.626;10.580;2023-07-24T01:28:25;23.50;;;9.73;;
35128;SDS011;21301;43.626;10.580;2023-07-24T01:30:52;19.42;;;9.02;;
35128;SDS011;21301;43.626;10.580;2023-07-24T01:33:19;25.77;;;9.05;;
35128;SDS011;21301;43.626;10.580;2023-07-24T01:35:46;15.60;;;8.13;;
35128;SDS011;21301;43.626;10.580;2023-07-24T01:38:16;13.40;;;8.05;;
35128;SDS011;21301;43.626;10.580;2023-07-24T01:40:43;20.45;;;9.70;;
35128;SDS011;21301;43.626;10.580;2023-07-24T01:43:11;16.80;;;7.75;;
35128;SDS011;21301;43.626;10.580;2023-07-24T01:48:11;19.27;;;9.23;;
35128;SDS011;21301;43.626;10.580;2023-07-24T01:50:37;16.55;;;9.35;;
35128;SDS011;21301;43.626;10.580;2023-07-24T01:53:03;15.55;;;9.18;;
35128;SDS011;21301;43.626;10.580;2023-07-24T01:55:30;16.38;;;9.45;;
35128;SDS011;21301;43.626;10.580;2023-07-24T01:57:56;19.05;;;10.00;;
35128;SDS011;21301;43.626;10.580;2023-07-24T02:00:22;15.55;;;9.00;;
35128;SDS011;21301;43.626;10.580;2023-07-24T02:02:56;16.27;;;7.97;;
35128;SDS011;21301;43.626;10.580;2023-07-24T02:05:22;18.23;;;9.25;;
35128;SDS011;21301;43.626;10.580;2023-07-24T02:07:48;15.20;;;8.15;;
35128;SDS011;21301;43.626;10.580;2023-07-24T02:10:14;19.58;;;8.93;;
35128;SDS011;21301;43.626;10.580;2023-07-24T02:12:40;17.73;;;9.02;;
35128;SDS011;21301;43.626;10.580;2023-07-24T02:15:07;17.98;;;8.60;;
35128;SDS011;21301;43.626;10.580;2023-07-24T02:17:34;16.48;;;8.40;;
35128;SDS011;21301;43.626;10.580;2023-07-24T02:20:00;24.55;;;10.10;;
35128;SDS011;21301;43.626;10.580;2023-07-24T02:22:27;15.02;;;8.50;;
35128;SDS011;21301;43.626;10.580;2023-07-24T02:24:52;17.60;;;8.95;;
35128;SDS011;21301;43.626;10.580;2023-07-24T02:27:26;17.70;;;9.85;;
35128;SDS011;21301;43.626;10.580;2023-07-24T02:29:56;18.38;;;9.18;;
35128;SDS011;21301;43.626;10.580;2023-07-24T02:32:24;23.48;;;11.25;;
35128;SDS011;21301;43.626;10.580;2023-07-24T02:34:50;20.25;;;10.73;;
35128;SDS011;21301;43.626;10.580;2023-07-24T02:37:17;20.88;;;10.93;;
35128;SDS011;21301;43.626;10.580;2023-07-24T02:39:43;20.30;;;9.77;;
35128;SDS011;21301;43.626;10.580;2023-07-24T02:42:08;18.70;;;9.50;;
35128;SDS011;21301;43.626;10.580;2023-07-24T02:44:34;21.40;;;12.30;;
35128;SDS011;21301;43.626;10.580;2023-07-24T02:47:01;20.20;;;11.23;;
35128;SDS011;21301;43.626;10.580;2023-07-24T02:49:27;18.60;;;11.20;;
35128;SDS011;21301;43.626;10.580;2023-07-24T02:51:54;19.77;;;10.27;;
35128;SDS011;21301;43.626;10.580;2023-07-24T02:54:19;18.77;;;10.30;;
35128;SDS011;21301;43.626;10.580;2023-07-24T02:56:45;18.90;;;10.98;;
35128;SDS011;21301;43.626;10.580;2023-07-24T02:59:11;16.83;;;8.77;;
35128;SDS011;21301;43.626;10.580;2023-07-24T03:04:40;17.15;;;8.80;;
35128;SDS011;21301;43.626;10.580;2023-07-24T03:07:06;17.33;;;8.93;;
35128;SDS011;21301;43.626;10.580;2023-07-24T03:09:33;18.05;;;9.82;;
35128;SDS011;21301;43.626;10.580;2023-07-24T03:12:00;17.85;;;9.98;;
35128;SDS011;21301;43.626;10.580;2023-07-24T03:14:26;17.45;;;10.07;;
35128;SDS011;21301;43.626;10.580;2023-07-24T03:16:51;21.85;;;11.48;;
35128;SDS011;21301;43.626;10.580;2023-07-24T03:19:17;20.70;;;11.00;;
35128;SDS011;21301;43.626;10.580;2023-07-24T03:21:45;22.70;;;11.52;;
35128;SDS011;21301;43.626;10.580;2023-07-24T03:24:11;19.52;;;11.27;;
35128;SDS011;21301;43.626;10.580;2023-07-24T03:26:37;19.33;;;11.02;;
35128;SDS011;21301;43.626;10.580;2023-07-24T03:29:04;17.77;;;10.60;;
35128;SDS011;21301;43.626;10.580;2023-07-24T03:31:31;18.13;;;10.43;;
35128;SDS011;21301;43.626;10.580;2023-07-24T03:33:56;16.67;;;10.73;;
35128;SDS011;21301;43.626;10.580;2023-07-24T03:36:23;19.92;;;10.25;;
35128;SDS011;21301;43.626;10.580;2023-07-24T03:38:48;22.25;;;11.60;;
35128;SDS011;21301;43.626;10.580;2023-07-24T03:41:14;18.55;;;10.02;;
35128;SDS011;21301;43.626;10.580;2023-07-24T03:43:41;18.58;;;9.98;;
35128;SDS011;21301;43.626;10.580;2023-07-24T03:46:07;18.45;;;9.80;;
35128;SDS011;21301;43.626;10.580;2023-07-24T03:48:34;22.17;;;10.98;;
35128;SDS011;21301;43.626;10.580;2023-07-24T03:51:01;21.42;;;9.70;;
35128;SDS011;21301;43.626;10.580;2023-07-24T03:53:28;19.40;;;11.80;;
35128;SDS011;21301;43.626;10.580;2023-07-24T03:55:54;19.25;;;10.93;;
35128;SDS011;21301;43.626;10.580;2023-07-24T03:58:20;22.00;;;10.27;;
35128;SDS011;21301;43.626;10.580;2023-07-24T04:00:46;15.23;;;9.13;;
35128;SDS011;21301;43.626;10.580;2023-07-24T04:03:12;18.33;;;10.25;;
35128;SDS011;21301;43.626;10.580;2023-07-24T04:05:38;17.30;;;10.30;;
35128;SDS011;21301;43.626;10.580;2023-07-24T04:08:03;15.60;;;9.00;;
35128;SDS011;21301;43.626;10.580;2023-07-24T04:10:31;17.83;;;10.02;;
35128;SDS011;21301;43.626;10.580;2023-07-24T04:12:58;21.38;;;10.00;;
35128;SDS011;21301;43.626;10.580;2023-07-24T04:15:25;17.90;;;9.65;;
35128;SDS011;21301;43.626;10.580;2023-07-24T04:17:52;20.80;;;11.38;;
35128;SDS011;21301;43.626;10.580;2023-07-24T04:20:18;18.95;;;9.90;;
35128;SDS011;21301;43.626;10.580;2023-07-24T04:22:43;19.80;;;11.10;;
35128;SDS011;21301;43.626;10.580;2023-07-24T04:25:10;17.83;;;10.07;;
35128;SDS011;21301;43.626;10.580;2023-07-24T04:27:36;21.10;;;11.18;;
35128;SDS011;21301;43.626;10.580;2023-07-24T04:30:02;18.05;;;10.60;;
35128;SDS011;21301;43.626;10.580;2023-07-24T04:32:28;21.52;;;11.77;;
35128;SDS011;21301;43.626;10.580;2023-07-24T04:34:54;23.55;;;10.77;;
35128;SDS011;21301;43.626;10.580;2023-07-24T04:37:20;23.25;;;11.13;;
35128;SDS011;21301;43.626;10.580;2023-07-24T04:39:45;19.85;;;10.93;;
35128;SDS011;21301;43.626;10.580;2023-07-24T04:42:11;18.50;;;10.50;;
35128;SDS011;21301;43.626;10.580;2023-07-24T04:44:37;24.48;;;11.27;;
35128;SDS011;21301;43.626;10.580;2023-07-24T04:47:03;26.45;;;12.30;;
35128;SDS011;21301;43.626;10.580;2023-07-24T04:49:29;19.33;;;10.77;;
35128;SDS011;21301;43.626;10.580;2023-07-24T04:51:55;20.27;;;9.65;;
35128;SDS011;21301;43.626;10.580;2023-07-24T04:54:23;18.50;;;11.15;;
35128;SDS011;21301;43.626;10.580;2023-07-24T04:56:48;19.73;;;10.63;;
35128;SDS011;21301;43.626;10.580;2023-07-24T04:59:15;22.80;;;11.75;;
35128;SDS011;21301;43.626;10.580;2023-07-24T05:01:41;16.70;;;10.82;;
35128;SDS011;21301;43.626;10.580;2023-07-24T05:04:07;18.85;;;10.88;;
35128;SDS011;21301;43.626;10.580;2023-07-24T05:06:35;21.67;;;10.82;;
35128;SDS011;21301;43.626;10.580;2023-07-24T05:09:02;18.90;;;11.70;;
35128;SDS011;21301;43.626;10.580;2023-07-24T05:11:28;20.23;;;10.70;;
35128;SDS011;21301;43.626;10.580;2023-07-24T05:13:54;22.42;;;10.52;;
35128;SDS011;21301;43.626;10.580;2023-07-24T05:16:19;23.58;;;12.05;;
35128;SDS011;21301;43.626;10.580;2023-07-24T05:18:45;18.25;;;10.38;;
35128;SDS011;21301;43.626;10.580;2023-07-24T05:21:12;22.73;;;11.27;;
35128;SDS011;21301;43.626;10.580;2023-07-24T05:23:38;24.95;;;11.77;;
35128;SDS011;21301;43.626;10.580;2023-07-24T05:26:04;26.27;;;12.32;;
35128;SDS011;21301;43.626;10.580;2023-07-24T05:28:32;18.40;;;11.30;;
35128;SDS011;21301;43.626;10.580;2023-07-24T05:31:01;23.15;;;10.35;;
35128;SDS011;21301;43.626;10.580;2023-07-24T05:33:28;21.10;;;11.35;;
35128;SDS011;21301;43.626;10.580;2023-07-24T05:35:58;18.20;;;9.73;;
35128;SDS011;21301;43.626;10.580;2023-07-24T05:38:28;19.52;;;10.68;;
35128;SDS011;21301;43.626;10.580;2023-07-24T05:40:58;16.67;;;9.55;;
35128;SDS011;21301;43.626;10.580;2023-07-24T05:43:25;16.92;;;9.60;;
35128;SDS011;21301;43.626;10.580;2023-07-24T05:45:52;18.30;;;9.80;;
35128;SDS011;21301;43.626;10.580;2023-07-24T05:48:18;23.20;;;10.18;;
35128;SDS011;21301;43.626;10.580;2023-07-24T05:50:44;20.02;;;10.43;;
35128;SDS011;21301;43.626;10.580;2023-07-24T05:53:10;18.38;;;11.65;;
35128;SDS011;21301;43.626;10.580;2023-07-24T05:55:36;22.58;;;10.20;;
35128;SDS011;21301;43.626;10.580;2023-07-24T05:58:02;15.98;;;9.68;;
35128;SDS011;21301;43.626;10.580;2023-07-24T06:00:28;18.55;;;10.10;;
35128;SDS011;21301;43.626;10.580;2023-07-24T06:02:55;17.50;;;10.43;;
35128;SDS011;21301;43.626;10.580;2023-07-24T06:05:20;19.20;;;9.23;;
35128;SDS011;21301;43.626;10.580;2023-07-24T06:07:49;17.45;;;10.23;;
35128;SDS011;21301;43.626;10.580;2023-07-24T06:10:14;20.20;;;10.52;;
35128;SDS011;21301;43.626;10.580;2023-07-24T06:12:40;18.80;;;9.68;;
35128;SDS011;21301;43.626;10.580;2023-07-24T06:15:07;15.38;;;9.73;;
35128;SDS011;21301;43.626;10.580;2023-07-24T06:17:35;20.15;;;10.85;;
35128;SDS011;21301;43.626;10.580;2023-07-24T06:20:01;18.67;;;10.40;;
35128;SDS011;21301;43.626;10.580;2023-07-24T06:22:27;18.50;;;9.80;;
35128;SDS011;21301;43.626;10.580;2023-07-24T06:24:53;18.30;;;10.90;;
35128;SDS011;21301;43.626;10.580;2023-07-24T06:27:18;23.63;;;10.00;;
35128;SDS011;21301;43.626;10.580;2023-07-24T06:29:44;20.75;;;9.80;;
35128;SDS011;21301;43.626;10.580;2023-07-24T06:32:11;15.80;;;9.20;;
35128;SDS011;21301;43.626;10.580;2023-07-24T06:34:37;19.23;;;10.27;;
35128;SDS011;21301;43.626;10.580;2023-07-24T06:37:03;20.17;;;10.25;;
35128;SDS011;21301;43.626;10.580;2023-07-24T06:39:28;18.15;;;9.25;;
35128;SDS011;21301;43.626;10.580;2023-07-24T06:41:55;18.60;;;9.35;;
35128;SDS011;21301;43.626;10.580;2023-07-24T06:44:22;18.70;;;10.30;;
35128;SDS011;21301;43.626;10.580;2023-07-24T06:46:48;23.25;;;9.73;;
35128;SDS011;21301;43.626;10.580;2023-07-24T06:49:14;18.48;;;10.18;;
35128;SDS011;21301;43.626;10.580;2023-07-24T06:51:40;16.73;;;8.85;;
35128;SDS011;21301;43.626;10.580;2023-07-24T06:54:07;18.02;;;9.25;;
35128;SDS011;21301;43.626;10.580;2023-07-24T06:56:33;17.08;;;8.75;;
35128;SDS011;21301;43.626;10.580;2023-07-24T06:58:59;15.38;;;8.50;;
35128;SDS011;21301;43.626;10.580;2023-07-24T07:01:24;20.65;;;10.07;;
35128;SDS011;21301;43.626;10.580;2023-07-24T07:03:50;21.85;;;11.27;;
35128;SDS011;21301;43.626;10.580;2023-07-24T07:06:16;20.60;;;10.57;;
35128;SDS011;21301;43.626;10.580;2023-07-24T07:08:42;20.33;;;9.45;;
35128;SDS011;21301;43.626;10.580;2023-07-24T07:11:08;23.17;;;9.35;;
35128;SDS011;21301;43.626;10.580;2023-07-24T07:13:34;17.45;;;8.80;;
35128;SDS011;21301;43.626;10.580;2023-07-24T07:15:59;19.67;;;10.23;;
35128;SDS011;21301;43.626;10.580;2023-07-24T07:18:25;16.73;;;8.52;;
35128;SDS011;21301;43.626;10.580;2023-07-24T07:20:51;14.27;;;7.70;;
35128;SDS011;21301;43.626;10.580;2023-07-24T07:23:18;18.08;;;8.95;;
35128;SDS011;21301;43.626;10.580;2023-07-24T07:25:44;13.32;;;7.20;;
35128;SDS011;21301;43.626;10.580;2023-07-24T07:28:11;16.10;;;8.07;;
35128;SDS011;21301;43.626;10.580;2023-07-24T07:30:38;22.13;;;8.93;;
35128;SDS011;21301;43.626;10.580;2023-07-24T07:33:04;18.38;;;8.18;;
35128;SDS011;21301;43.626;10.580;2023-07-24T07:35:33;16.83;;;7.65;;
35128;SDS011;21301;43.626;10.580;2023-07-24T07:38:01;19.58;;;8.18;;
35128;SDS011;21301;43.626;10.580;2023-07-24T07:40:27;24.05;;;7.13;;
35128;SDS011;21301;43.626;10.580;2023-07-24T07:42:53;14.55;;;7.35;;
35128;SDS011;21301;43.626;10.580;2023-07-24T07:45:19;12.68;;;6.85;;
35128;SDS011;21301;43.626;10.580;2023-07-24T07:47:46;18.70;;;7.43;;
35128;SDS011;21301;43.626;10.580;2023-07-24T07:50:11;21.27;;;7.85;;
35128;SDS011;21301;43.626;10.580;2023-07-24T07:52:38;13.43;;;7.05;;
35128;SDS011;21301;43.626;10.580;2023-07-24T07:55:04;14.15;;;7.50;;
35128;SDS011;21301;43.626;10.580;2023-07-24T07:57:34;17.15;;;8.52;;
35128;SDS011;21301;43.626;10.580;2023-07-24T08:00:04;16.17;;;7.45;;
35128;SDS011;21301;43.626;10.580;2023-07-24T08:02:33;13.13;;;6.93;;
35128;SDS011;21301;43.626;10.580;2023-07-24T08:04:59;11.25;;;6.07;;
35128;SDS011;21301;43.626;10.580;2023-07-24T08:07:25;22.90;;;7.55;;
35128;SDS011;21301;43.626;10.580;2023-07-24T08:09:51;19.27;;;6.85;;
35128;SDS011;21301;43.626;10.580;2023-07-24T08:12:17;12.32;;;6.55;;
35128;SDS011;21301;43.626;10.580;2023-07-24T08:14:42;12.25;;;6.70;;
35128;SDS011;21301;43.626;10.580;2023-07-24T08:17:09;14.20;;;5.53;;
35128;SDS011;21301;43.626;10.580;2023-07-24T08:19:35;20.10;;;6.53;;
35128;SDS011;21301;43.626;10.580;2023-07-24T08:22:00;18.52;;;7.68;;
35128;SDS011;21301;43.626;10.580;2023-07-24T08:24:26;17.23;;;7.80;;
35128;SDS011;21301;43.626;10.580;2023-07-24T08:26:52;18.38;;;7.70;;
35128;SDS011;21301;43.626;10.580;2023-07-24T08:29:18;15.57;;;7.15;;
35128;SDS011;21301;43.626;10.580;2023-07-24T08:31:43;18.17;;;7.20;;
35128;SDS011;21301;43.626;10.580;2023-07-24T08:34:09;15.25;;;7.00;;
35128;SDS011;21301;43.626;10.580;2023-07-24T08:36:35;16.50;;;6.93;;
35128;SDS011;21301;43.626;10.580;2023-07-24T08:39:02;19.55;;;7.47;;
35128;SDS011;21301;43.626;10.580;2023-07-24T08:41:28;18.77;;;6.88;;
35128;SDS011;21301;43.626;10.580;2023-07-24T08:43:56;15.73;;;6.90;;
35128;SDS011;21301;43.626;10.580;2023-07-24T08:46:22;17.10;;;6.35;;
35128;SDS011;21301;43.626;10.580;2023-07-24T08:48:47;14.35;;;6.05;;
35128;SDS011;21301;43.626;10.580;2023-07-24T08:51:14;15.88;;;6.53;;
35128;SDS011;21301;43.626;10.580;2023-07-24T08:53:50;14.38;;;6.70;;
35128;SDS011;21301;43.626;10.580;2023-07-24T08:56:16;17.30;;;5.88;;
35128;SDS011;21301;43.626;10.580;2023-07-24T08:58:41;20.90;;;7.18;;
35128;SDS011;21301;43.626;10.580;2023-07-24T09:01:08;13.00;;;5.90;;
35128;SDS011;21301;43.626;10.580;2023-07-24T09:03:34;12.63;;;5.75;;
35128;SDS011;21301;43.626;10.580;2023-07-24T09:06:00;10.30;;;6.05;;
35128;SDS011;21301;43.626;10.580;2023-07-24T09:08:29;12.98;;;6.22;;
35128;SDS011;21301;43.626;10.580;2023-07-24T09:10:56;10.50;;;5.65;;
35128;SDS011;21301;43.626;10.580;2023-07-24T09:13:22;10.35;;;4.95;;
35128;SDS011;21301;43.626;10.580;2023-07-24T09:15:48;17.02;;;6.30;;
35128;SDS011;21301;43.626;10.580;2023-07-24T09:18:14;13.45;;;5.88;;
35128;SDS011;21301;43.626;10.580;2023-07-24T09:20:42;12.05;;;6.13;;
35128;SDS011;21301;43.626;10.580;2023-07-24T09:23:09;12.88;;;6.20;;
35128;SDS011;21301;43.626;10.580;2023-07-24T09:25:37;12.60;;;6.13;;
35128;SDS011;21301;43.626;10.580;2023-07-24T09:28:14;19.08;;;6.13;;
35128;SDS011;21301;43.626;10.580;2023-07-24T09:30:42;14.82;;;5.95;;
35128;SDS011;21301;43.626;10.580;2023-07-24T09:33:21;19.15;;;5.38;;
35128;SDS011;21301;43.626;10.580;2023-07-24T09:36:09;23.13;;;6.85;;
35128;SDS011;21301;43.626;10.580;2023-07-24T09:38:39;20.08;;;5.53;;
35128;SDS011;21301;43.626;10.580;2023-07-24T09:41:06;16.23;;;4.80;;
35128;SDS011;21301;43.626;10.580;2023-07-24T09:43:32;18.17;;;6.00;;
35128;SDS011;21301;43.626;10.580;2023-07-24T09:46:00;17.02;;;4.32;;
35128;SDS011;21301;43.626;10.580;2023-07-24T09:48:29;18.10;;;5.45;;
35128;SDS011;21301;43.626;10.580;2023-07-24T09:50:56;17.50;;;5.95;;
35128;SDS011;21301;43.626;10.580;2023-07-24T09:55:58;22.05;;;6.05;;
35128;SDS011;21301;43.626;10.580;2023-07-24T09:58:25;16.48;;;5.25;;
35128;SDS011;21301;43.626;10.580;2023-07-24T10:00:53;17.05;;;6.28;;
35128;SDS011;21301;43.626;10.580;2023-07-24T10:03:20;21.05;;;5.82;;
35128;SDS011;21301;43.626;10.580;2023-07-24T10:05:47;19.52;;;6.13;;
35128;SDS011;21301;43.626;10.580;2023-07-24T10:08:15;19.15;;;6.68;;
35128;SDS011;21301;43.626;10.580;2023-07-24T10:10:42;17.45;;;6.15;;
35128;SDS011;21301;43.626;10.580;2023-07-24T10:13:09;16.60;;;5.70;;
35128;SDS011;21301;43.626;10.580;2023-07-24T10:15:39;14.00;;;5.78;;
35128;SDS011;21301;43.626;10.580;2023-07-24T10:18:28;17.67;;;6.50;;
35128;SDS011;21301;43.626;10.580;2023-07-24T10:21:00;23.77;;;6.35;;
35128;SDS011;21301;43.626;10.580;2023-07-24T10:23:28;15.90;;;5.57;;
35128;SDS011;21301;43.626;10.580;2023-07-24T10:25:54;15.40;;;5.60;;
35128;SDS011;21301;43.626;10.580;2023-07-24T10:28:30;17.95;;;6.32;;
35128;SDS011;21301;43.626;10.580;2023-07-24T10:30:58;19.38;;;5.85;;
35128;SDS011;21301;43.626;10.580;2023-07-24T10:33:29;15.15;;;5.05;;
35128;SDS011;21301;43.626;10.580;2023-07-24T10:36:03;14.75;;;5.90;;
35128;SDS011;21301;43.626;10.580;2023-07-24T10:38:35;14.50;;;5.32;;
35128;SDS011;21301;43.626;10.580;2023-07-24T10:41:03;21.63;;;6.55;;
35128;SDS011;21301;43.626;10.580;2023-07-24T10:43:39;15.15;;;5.60;;
35128;SDS011;21301;43.626;10.580;2023-07-24T10:46:07;19.20;;;6.78;;
35128;SDS011;21301;43.626;10.580;2023-07-24T10:48:33;20.30;;;5.72;;
35128;SDS011;21301;43.626;10.580;2023-07-24T10:51:05;25.92;;;6.75;;
35128;SDS011;21301;43.626;10.580;2023-07-24T10:53:34;17.65;;;5.18;;
35128;SDS011;21301;43.626;10.580;2023-07-24T10:56:01;21.73;;;6.35;;
35128;SDS011;21301;43.626;10.580;2023-07-24T10:58:29;17.45;;;6.00;;
35128;SDS011;21301;43.626;10.580;2023-07-24T11:00:55;21.85;;;6.22;;
35128;SDS011;21301;43.626;10.580;2023-07-24T11:03:21;21.13;;;6.15;;
35128;SDS011;21301;43.626;10.580;2023-07-24T11:05:47;20.83;;;7.60;;
35128;SDS011;21301;43.626;10.580;2023-07-24T11:08:14;23.60;;;6.38;;
35128;SDS011;21301;43.626;10.580;2023-07-24T11:10:54;19.77;;;5.82;;
35128;SDS011;21301;43.626;10.580;2023-07-24T11:13:23;14.90;;;4.82;;
35128;SDS011;21301;43.626;10.580;2023-07-24T11:15:50;22.55;;;6.07;;
35128;SDS011;21301;43.626;10.580;2023-07-24T11:18:17;22.25;;;6.40;;
35128;SDS011;21301;43.626;10.580;2023-07-24T11:23:17;23.48;;;7.18;;
35128;SDS011;21301;43.626;10.580;2023-07-24T11:25:43;20.65;;;5.97;;
35128;SDS011;21301;43.626;10.580;2023-07-24T11:28:10;19.75;;;6.82;;
35128;SDS011;21301;43.626;10.580;2023-07-24T11:30:37;23.08;;;6.80;;
35128;SDS011;21301;43.626;10.580;2023-07-24T11:33:04;26.02;;;7.45;;
35128;SDS011;21301;43.626;10.580;2023-07-24T11:35:31;24.15;;;7.07;;
35128;SDS011;21301;43.626;10.580;2023-07-24T11:37:59;18.70;;;7.00;;
35128;SDS011;21301;43.626;10.580;2023-07-24T11:40:31;24.63;;;7.53;;
35128;SDS011;21301;43.626;10.580;2023-07-24T11:43:03;23.70;;;8.02;;
35128;SDS011;21301;43.626;10.580;2023-07-24T11:45:39;25.10;;;7.82;;
35128;SDS011;21301;43.626;10.580;2023-07-24T11:48:10;21.85;;;8.32;;
35128;SDS011;21301;43.626;10.580;2023-07-24T11:50:43;25.63;;;8.63;;
35128;SDS011;21301;43.626;10.580;2023-07-24T11:53:23;28.42;;;8.75;;
35128;SDS011;21301;43.626;10.580;2023-07-24T11:55:54;32.15;;;8.50;;
35128;SDS011;21301;43.626;10.580;2023-07-24T11:58:21;23.77;;;7.78;;
35128;SDS011;21301;43.626;10.580;2023-07-24T12:00:49;20.35;;;7.25;;
35128;SDS011;21301;43.626;10.580;2023-07-24T12:03:34;23.75;;;7.80;;
35128;SDS011;21301;43.626;10.580;2023-07-24T12:06:00;37.97;;;8.25;;
35128;SDS011;21301;43.626;10.580;2023-07-24T12:08:31;30.10;;;7.50;;
35128;SDS011;21301;43.626;10.580;2023-07-24T12:11:02;26.95;;;7.72;;
35128;SDS011;21301;43.626;10.580;2023-07-24T12:13:28;28.38;;;8.02;;
35128;SDS011;21301;43.626;10.580;2023-07-24T12:15:54;23.70;;;8.55;;
35128;SDS011;21301;43.626;10.580;2023-07-24T12:18:20;23.02;;;8.07;;
35128;SDS011;21301;43.626;10.580;2023-07-24T12:20:46;24.70;;;6.75;;
35128;SDS011;21301;43.626;10.580;2023-07-24T12:23:12;31.92;;;8.98;;
35128;SDS011;21301;43.626;10.580;2023-07-24T12:25:39;26.60;;;8.57;;
35128;SDS011;21301;43.626;10.580;2023-07-24T12:28:05;18.17;;;7.53;;
35128;SDS011;21301;43.626;10.580;2023-07-24T12:30:31;22.23;;;6.38;;
35128;SDS011;21301;43.626;10.580;2023-07-24T12:32:56;30.92;;;8.82;;
35128;SDS011;21301;43.626;10.580;2023-07-24T12:35:24;23.88;;;8.95;;
35128;SDS011;21301;43.626;10.580;2023-07-24T12:37:50;28.83;;;8.77;;
35128;SDS011;21301;43.626;10.580;2023-07-24T12:40:15;31.08;;;8.65;;
35128;SDS011;21301;43.626;10.580;2023-07-24T12:42:41;26.25;;;7.97;;
35128;SDS011;21301;43.626;10.580;2023-07-24T12:45:09;22.17;;;8.57;;
35128;SDS011;21301;43.626;10.580;2023-07-24T12:47:35;26.52;;;8.82;;
35128;SDS011;21301;43.626;10.580;2023-07-24T12:50:01;24.52;;;9.15;;
35128;SDS011;21301;43.626;10.580;2023-07-24T12:52:28;29.30;;;8.88;;
35128;SDS011;21301;43.626;10.580;2023-07-24T12:54:54;26.88;;;7.90;;
35128;SDS011;21301;43.626;10.580;2023-07-24T12:57:20;28.30;;;7.72;;
35128;SDS011;21301;43.626;10.580;2023-07-24T12:59:46;26.58;;;9.32;;
35128;SDS011;21301;43.626;10.580;2023-07-24T13:02:12;29.85;;;7.35;;
35128;SDS011;21301;43.626;10.580;2023-07-24T13:04:37;38.10;;;8.23;;
35128;SDS011;21301;43.626;10.580;2023-07-24T13:07:03;26.55;;;8.68;;
35128;SDS011;21301;43.626;10.580;2023-07-24T13:09:31;18.25;;;7.20;;
35128;SDS011;21301;43.626;10.580;2023-07-24T13:11:58;31.00;;;9.18;;
35128;SDS011;21301;43.626;10.580;2023-07-24T13:14:24;21.73;;;7.47;;
35128;SDS011;21301;43.626;10.580;2023-07-24T13:16:50;25.80;;;8.05;;
35128;SDS011;21301;43.626;10.580;2023-07-24T13:19:16;25.75;;;8.57;;
35128;SDS011;21301;43.626;10.580;2023-07-24T13:21:42;22.13;;;8.15;;
35128;SDS011;21301;43.626;10.580;2023-07-24T13:24:08;29.23;;;8.90;;
35128;SDS011;21301;43.626;10.580;2023-07-24T13:26:34;25.55;;;8.15;;
35128;SDS011;21301;43.626;10.580;2023-07-24T13:29:02;25.75;;;7.68;;
35128;SDS011;21301;43.626;10.580;2023-07-24T13:31:30;29.60;;;8.38;;
35128;SDS011;21301;43.626;10.580;2023-07-24T13:33:56;27.20;;;8.23;;
35128;SDS011;21301;43.626;10.580;2023-07-24T13:36:22;27.23;;;8.65;;
35128;SDS011;21301;43.626;10.580;2023-07-24T13:38:48;27.95;;;7.40;;
35128;SDS011;21301;43.626;10.580;2023-07-24T13:41:15;20.60;;;7.40;;
35128;SDS011;21301;43.626;10.580;2023-07-24T13:43:41;20.13;;;6.20;;
35128;SDS011;21301;43.626;10.580;2023-07-24T13:46:07;20.27;;;7.25;;
35128;SDS011;21301;43.626;10.580;2023-07-24T13:48:34;26.95;;;6.50;;
35128;SDS011;21301;43.626;10.580;2023-07-24T13:50:59;20.40;;;6.65;;
35128;SDS011;21301;43.626;10.580;2023-07-24T13:53:25;21.60;;;6.72;;
35128;SDS011;21301;43.626;10.580;2023-07-24T13:55:51;24.17;;;6.53;;
35128;SDS011;21301;43.626;10.580;2023-07-24T13:58:17;19.17;;;6.85;;
35128;SDS011;21301;43.626;10.580;2023-07-24T14:00:43;22.40;;;7.03;;
35128;SDS011;21301;43.626;10.580;2023-07-24T14:03:08;19.23;;;6.75;;
35128;SDS011;21301;43.626;10.580;2023-07-24T14:05:34;20.80;;;6.65;;
35128;SDS011;21301;43.626;10.580;2023-07-24T14:08:03;32.92;;;6.57;;
35128;SDS011;21301;43.626;10.580;2023-07-24T14:10:29;25.67;;;7.15;;
35128;SDS011;21301;43.626;10.580;2023-07-24T14:12:55;25.75;;;7.80;;
35128;SDS011;21301;43.626;10.580;2023-07-24T14:15:21;24.10;;;7.38;;
35128;SDS011;21301;43.626;10.580;2023-07-24T14:17:47;17.27;;;7.05;;
35128;SDS011;21301;43.626;10.580;2023-07-24T14:20:13;17.75;;;7.15;;
35128;SDS011;21301;43.626;10.580;2023-07-24T14:22:39;20.70;;;6.53;;
35128;SDS011;21301;43.626;10.580;2023-07-24T14:25:05;20.17;;;7.05;;
35128;SDS011;21301;43.626;10.580;2023-07-24T14:27:31;24.35;;;6.95;;
35128;SDS011;21301;43.626;10.580;2023-07-24T14:29:57;22.25;;;6.90;;
35128;SDS011;21301;43.626;10.580;2023-07-24T14:32:23;27.35;;;8.15;;
35128;SDS011;21301;43.626;10.580;2023-07-24T14:34:50;32.63;;;7.88;;